sensor_id;sensor_type;location;lat;lon;timestamp;temperature;humidity
22069;DHT22;13887;57.196;-2.100;2022-09-09T00:04:29;15.95;92.87
22069;DHT22;13887;57.196;-2.100;2022-09-09T00:07:18;15.93;92.82
22069;DHT22;13887;57.196;-2.100;2022-09-09T00:12:31;15.93;92.84
22069;DHT22;13887;57.196;-2.100;2022-09-09T00:15:14;15.97;92.71
22069;DHT22;13887;57.196;-2.100;2022-09-09T00:18:00;15.93;92.88
22069;DHT22;13887;57.196;-2.100;2022-09-09T00:20:38;15.96;92.93
22069;DHT22;13887;57.196;-2.100;2022-09-09T00:23:29;15.92;93.11
22069;DHT22;13887;57.196;-2.100;2022-09-09T00:26:14;15.90;93.34
22069;DHT22;13887;57.196;-2.100;2022-09-09T00:28:55;15.89;93.49
22069;DHT22;13887;57.196;-2.100;2022-09-09T00:31:27;15.87;93.69
22069;DHT22;13887;57.196;-2.100;2022-09-09T00:34:29;15.87;93.69
22069;DHT22;13887;57.196;-2.100;2022-09-09T00:36:50;15.86;93.66
22069;DHT22;13887;57.196;-2.100;2022-09-09T00:42:13;15.87;93.22
22069;DHT22;13887;57.196;-2.100;2022-09-09T00:47:25;15.84;93.19
22069;DHT22;13887;57.196;-2.100;2022-09-09T00:50:32;15.84;92.98
22069;DHT22;13887;57.196;-2.100;2022-09-09T00:53:14;15.85;92.85
22069;DHT22;13887;57.196;-2.100;2022-09-09T00:55:48;15.84;92.93
22069;DHT22;13887;57.196;-2.100;2022-09-09T00:58:15;15.85;92.83
22069;DHT22;13887;57.196;-2.100;2022-09-09T01:01:12;15.84;92.69
22069;DHT22;13887;57.196;-2.100;2022-09-09T01:03:47;15.84;92.75
22069;DHT22;13887;57.196;-2.100;2022-09-09T01:11:31;15.82;92.76
22069;DHT22;13887;57.196;-2.100;2022-09-09T01:14:10;15.80;92.87
22069;DHT22;13887;57.196;-2.100;2022-09-09T01:16:40;15.80;92.79
22069;DHT22;13887;57.196;-2.100;2022-09-09T01:19:10;15.83;92.69
22069;DHT22;13887;57.196;-2.100;2022-09-09T01:21:57;15.80;92.82
22069;DHT22;13887;57.196;-2.100;2022-09-09T01:25:07;15.76;92.93
22069;DHT22;13887;57.196;-2.100;2022-09-09T01:28:05;15.76;92.94
22069;DHT22;13887;57.196;-2.100;2022-09-09T01:30:38;15.77;92.86
22069;DHT22;13887;57.196;-2.100;2022-09-09T01:33:13;15.80;92.83
22069;DHT22;13887;57.196;-2.100;2022-09-09T01:36:00;15.76;92.90
22069;DHT22;13887;57.196;-2.100;2022-09-09T01:38:36;15.75;92.91
22069;DHT22;13887;57.196;-2.100;2022-09-09T01:41:03;15.76;92.76
22069;DHT22;13887;57.196;-2.100;2022-09-09T01:43:52;15.72;92.86
22069;DHT22;13887;57.196;-2.100;2022-09-09T01:46:22;15.75;92.93
22069;DHT22;13887;57.196;-2.100;2022-09-09T01:48:53;15.75;92.79
22069;DHT22;13887;57.196;-2.100;2022-09-09T01:51:21;15.72;92.95
22069;DHT22;13887;57.196;-2.100;2022-09-09T01:53:49;15.70;93.16
22069;DHT22;13887;57.196;-2.100;2022-09-09T02:02:01;15.69;93.37
22069;DHT22;13887;57.196;-2.100;2022-09-09T02:04:52;15.71;93.26
22069;DHT22;13887;57.196;-2.100;2022-09-09T02:07:42;15.69;93.29
22069;DHT22;13887;57.196;-2.100;2022-09-09T02:10:31;15.72;93.15
22069;DHT22;13887;57.196;-2.100;2022-09-09T02:13:13;15.72;93.22
22069;DHT22;13887;57.196;-2.100;2022-09-09T02:15:58;15.71;93.18
22069;DHT22;13887;57.196;-2.100;2022-09-09T02:18:32;15.71;93.21
22069;DHT22;13887;57.196;-2.100;2022-09-09T02:21:02;15.69;93.09
22069;DHT22;13887;57.196;-2.100;2022-09-09T02:23:30;15.67;93.20
22069;DHT22;13887;57.196;-2.100;2022-09-09T02:26:00;15.67;93.13
22069;DHT22;13887;57.196;-2.100;2022-09-09T02:28:30;15.66;93.25
22069;DHT22;13887;57.196;-2.100;2022-09-09T02:30:58;15.68;93.11
22069;DHT22;13887;57.196;-2.100;2022-09-09T02:33:37;15.68;93.08
22069;DHT22;13887;57.196;-2.100;2022-09-09T02:36:07;15.68;93.08
22069;DHT22;13887;57.196;-2.100;2022-09-09T02:38:46;15.67;93.20
22069;DHT22;13887;57.196;-2.100;2022-09-09T02:41:33;15.67;93.11
22069;DHT22;13887;57.196;-2.100;2022-09-09T02:44:01;15.66;93.23
22069;DHT22;13887;57.196;-2.100;2022-09-09T02:49:47;15.66;93.11
22069;DHT22;13887;57.196;-2.100;2022-09-09T02:52:21;15.60;93.26
22069;DHT22;13887;57.196;-2.100;2022-09-09T02:54:58;15.62;93.14
22069;DHT22;13887;57.196;-2.100;2022-09-09T02:57:30;15.63;93.01
22069;DHT22;13887;57.196;-2.100;2022-09-09T02:59:59;15.67;92.90
22069;DHT22;13887;57.196;-2.100;2022-09-09T03:02:30;15.63;92.92
22069;DHT22;13887;57.196;-2.100;2022-09-09T03:05:03;15.63;92.95
22069;DHT22;13887;57.196;-2.100;2022-09-09T03:07:30;15.62;93.00
22069;DHT22;13887;57.196;-2.100;2022-09-09T03:09:57;15.62;92.98
22069;DHT22;13887;57.196;-2.100;2022-09-09T03:12:26;15.61;92.91
22069;DHT22;13887;57.196;-2.100;2022-09-09T03:14:53;15.63;92.75
22069;DHT22;13887;57.196;-2.100;2022-09-09T03:17:20;15.63;92.67
22069;DHT22;13887;57.196;-2.100;2022-09-09T03:19:51;15.60;92.82
22069;DHT22;13887;57.196;-2.100;2022-09-09T03:22:21;15.61;92.69
22069;DHT22;13887;57.196;-2.100;2022-09-09T03:24:48;15.56;92.58
22069;DHT22;13887;57.196;-2.100;2022-09-09T03:27:15;15.60;92.31
22069;DHT22;13887;57.196;-2.100;2022-09-09T03:29:43;15.57;92.20
22069;DHT22;13887;57.196;-2.100;2022-09-09T03:32:16;15.62;92.04
22069;DHT22;13887;57.196;-2.100;2022-09-09T03:34:44;15.60;92.03
22069;DHT22;13887;57.196;-2.100;2022-09-09T03:37:12;15.60;92.17
22069;DHT22;13887;57.196;-2.100;2022-09-09T03:39:39;15.57;92.33
22069;DHT22;13887;57.196;-2.100;2022-09-09T03:42:07;15.56;92.27
22069;DHT22;13887;57.196;-2.100;2022-09-09T03:44:34;15.57;92.21
22069;DHT22;13887;57.196;-2.100;2022-09-09T03:47:01;15.58;92.21
22069;DHT22;13887;57.196;-2.100;2022-09-09T03:49:28;15.56;92.29
22069;DHT22;13887;57.196;-2.100;2022-09-09T03:51:56;15.60;92.10
22069;DHT22;13887;57.196;-2.100;2022-09-09T03:54:24;15.59;92.07
22069;DHT22;13887;57.196;-2.100;2022-09-09T03:56:51;15.60;92.15
22069;DHT22;13887;57.196;-2.100;2022-09-09T03:59:19;15.61;92.10
22069;DHT22;13887;57.196;-2.100;2022-09-09T04:01:47;15.61;92.12
22069;DHT22;13887;57.196;-2.100;2022-09-09T04:04:15;15.58;92.27
22069;DHT22;13887;57.196;-2.100;2022-09-09T04:06:42;15.58;92.45
22069;DHT22;13887;57.196;-2.100;2022-09-09T04:09:09;15.58;92.45
22069;DHT22;13887;57.196;-2.100;2022-09-09T04:11:36;15.59;92.53
22069;DHT22;13887;57.196;-2.100;2022-09-09T04:14:03;15.57;92.65
22069;DHT22;13887;57.196;-2.100;2022-09-09T04:16:33;15.56;92.72
22069;DHT22;13887;57.196;-2.100;2022-09-09T04:19:03;15.58;92.79
22069;DHT22;13887;57.196;-2.100;2022-09-09T04:21:30;15.58;92.67
22069;DHT22;13887;57.196;-2.100;2022-09-09T04:23:59;15.61;92.60
22069;DHT22;13887;57.196;-2.100;2022-09-09T04:26:27;15.59;92.84
22069;DHT22;13887;57.196;-2.100;2022-09-09T04:28:53;15.55;93.05
22069;DHT22;13887;57.196;-2.100;2022-09-09T04:31:22;15.56;93.05
22069;DHT22;13887;57.196;-2.100;2022-09-09T04:33:53;15.54;93.04
22069;DHT22;13887;57.196;-2.100;2022-09-09T04:36:21;15.54;93.01
22069;DHT22;13887;57.196;-2.100;2022-09-09T04:38:50;15.54;92.98
22069;DHT22;13887;57.196;-2.100;2022-09-09T04:41:17;15.49;93.07
22069;DHT22;13887;57.196;-2.100;2022-09-09T04:43:48;15.54;92.82
22069;DHT22;13887;57.196;-2.100;2022-09-09T04:46:16;15.52;92.76
22069;DHT22;13887;57.196;-2.100;2022-09-09T04:48:45;15.49;92.66
22069;DHT22;13887;57.196;-2.100;2022-09-09T04:51:13;15.53;92.30
22069;DHT22;13887;57.196;-2.100;2022-09-09T04:53:42;15.48;92.15
22069;DHT22;13887;57.196;-2.100;2022-09-09T04:56:13;15.49;91.98
22069;DHT22;13887;57.196;-2.100;2022-09-09T04:58:46;15.47;91.99
22069;DHT22;13887;57.196;-2.100;2022-09-09T05:01:16;15.47;92.03
22069;DHT22;13887;57.196;-2.100;2022-09-09T05:03:49;15.42;92.21
22069;DHT22;13887;57.196;-2.100;2022-09-09T05:06:21;15.47;92.11
22069;DHT22;13887;57.196;-2.100;2022-09-09T05:08:52;15.45;92.25
22069;DHT22;13887;57.196;-2.100;2022-09-09T05:11:25;15.48;92.20
22069;DHT22;13887;57.196;-2.100;2022-09-09T05:13:57;15.51;92.18
22069;DHT22;13887;57.196;-2.100;2022-09-09T05:16:24;15.52;92.27
22069;DHT22;13887;57.196;-2.100;2022-09-09T05:18:52;15.49;92.25
22069;DHT22;13887;57.196;-2.100;2022-09-09T05:21:21;15.49;92.26
22069;DHT22;13887;57.196;-2.100;2022-09-09T05:23:49;15.49;92.32
22069;DHT22;13887;57.196;-2.100;2022-09-09T05:26:20;15.51;92.21
22069;DHT22;13887;57.196;-2.100;2022-09-09T05:28:49;15.51;92.24
22069;DHT22;13887;57.196;-2.100;2022-09-09T05:31:17;15.48;92.25
22069;DHT22;13887;57.196;-2.100;2022-09-09T05:33:48;15.48;92.26
22069;DHT22;13887;57.196;-2.100;2022-09-09T05:36:18;15.46;92.38
22069;DHT22;13887;57.196;-2.100;2022-09-09T05:38:47;15.46;92.35
22069;DHT22;13887;57.196;-2.100;2022-09-09T05:41:15;15.52;92.21
22069;DHT22;13887;57.196;-2.100;2022-09-09T05:43:43;15.53;92.10
22069;DHT22;13887;57.196;-2.100;2022-09-09T05:46:13;15.51;91.98
22069;DHT22;13887;57.196;-2.100;2022-09-09T05:48:42;15.48;91.89
22069;DHT22;13887;57.196;-2.100;2022-09-09T05:51:11;15.52;91.76
22069;DHT22;13887;57.196;-2.100;2022-09-09T05:53:39;15.51;91.67
22069;DHT22;13887;57.196;-2.100;2022-09-09T05:56:09;15.49;91.66
22069;DHT22;13887;57.196;-2.100;2022-09-09T05:58:38;15.53;91.57
22069;DHT22;13887;57.196;-2.100;2022-09-09T06:01:11;15.52;91.50
22069;DHT22;13887;57.196;-2.100;2022-09-09T06:03:39;15.52;91.60
22069;DHT22;13887;57.196;-2.100;2022-09-09T06:06:12;15.52;91.57
22069;DHT22;13887;57.196;-2.100;2022-09-09T06:08:41;15.51;91.61
22069;DHT22;13887;57.196;-2.100;2022-09-09T06:13:39;15.51;91.66
22069;DHT22;13887;57.196;-2.100;2022-09-09T06:16:15;15.49;91.63
22069;DHT22;13887;57.196;-2.100;2022-09-09T06:18:43;15.47;91.70
22069;DHT22;13887;57.196;-2.100;2022-09-09T06:21:22;15.49;91.64
22069;DHT22;13887;57.196;-2.100;2022-09-09T06:23:50;15.49;91.51
22069;DHT22;13887;57.196;-2.100;2022-09-09T06:26:21;15.48;91.51
22069;DHT22;13887;57.196;-2.100;2022-09-09T06:28:50;15.51;91.43
22069;DHT22;13887;57.196;-2.100;2022-09-09T06:31:21;15.47;91.53
22069;DHT22;13887;57.196;-2.100;2022-09-09T06:33:54;15.46;91.47
22069;DHT22;13887;57.196;-2.100;2022-09-09T06:36:24;15.46;91.56
22069;DHT22;13887;57.196;-2.100;2022-09-09T06:38:52;15.48;91.52
22069;DHT22;13887;57.196;-2.100;2022-09-09T06:41:22;15.45;91.47
22069;DHT22;13887;57.196;-2.100;2022-09-09T06:43:49;15.45;91.59
22069;DHT22;13887;57.196;-2.100;2022-09-09T06:46:18;15.48;91.53
22069;DHT22;13887;57.196;-2.100;2022-09-09T06:48:46;15.49;91.53
22069;DHT22;13887;57.196;-2.100;2022-09-09T06:51:17;15.53;91.42
22069;DHT22;13887;57.196;-2.100;2022-09-09T06:53:45;15.53;91.37
22069;DHT22;13887;57.196;-2.100;2022-09-09T06:58:44;15.56;91.33
22069;DHT22;13887;57.196;-2.100;2022-09-09T07:01:23;15.56;91.44
22069;DHT22;13887;57.196;-2.100;2022-09-09T07:03:52;15.54;91.54
22069;DHT22;13887;57.196;-2.100;2022-09-09T07:06:22;15.53;91.50
22069;DHT22;13887;57.196;-2.100;2022-09-09T07:08:52;15.55;91.31
22069;DHT22;13887;57.196;-2.100;2022-09-09T07:11:27;15.53;91.49
22069;DHT22;13887;57.196;-2.100;2022-09-09T07:13:57;15.52;91.59
22069;DHT22;13887;57.196;-2.100;2022-09-09T07:16:25;15.55;91.51
22069;DHT22;13887;57.196;-2.100;2022-09-09T07:18:55;15.54;91.61
22069;DHT22;13887;57.196;-2.100;2022-09-09T07:21:26;15.54;91.55
22069;DHT22;13887;57.196;-2.100;2022-09-09T07:23:53;15.53;91.43
22069;DHT22;13887;57.196;-2.100;2022-09-09T07:26:26;15.49;91.54
22069;DHT22;13887;57.196;-2.100;2022-09-09T07:28:55;15.53;91.32
22069;DHT22;13887;57.196;-2.100;2022-09-09T07:31:30;15.52;91.29
22069;DHT22;13887;57.196;-2.100;2022-09-09T07:33:58;15.51;91.28
22069;DHT22;13887;57.196;-2.100;2022-09-09T07:36:31;15.54;91.37
22069;DHT22;13887;57.196;-2.100;2022-09-09T07:39:03;15.55;91.25
22069;DHT22;13887;57.196;-2.100;2022-09-09T07:41:42;15.57;91.33
22069;DHT22;13887;57.196;-2.100;2022-09-09T07:44:17;15.58;91.26
22069;DHT22;13887;57.196;-2.100;2022-09-09T07:46:48;15.58;91.31
22069;DHT22;13887;57.196;-2.100;2022-09-09T07:49:19;15.59;91.36
22069;DHT22;13887;57.196;-2.100;2022-09-09T07:51:55;15.57;91.24
22069;DHT22;13887;57.196;-2.100;2022-09-09T07:54:22;15.57;91.24
22069;DHT22;13887;57.196;-2.100;2022-09-09T07:56:52;15.60;91.05
22069;DHT22;13887;57.196;-2.100;2022-09-09T07:59:22;15.60;90.97
22069;DHT22;13887;57.196;-2.100;2022-09-09T08:01:51;15.60;90.90
22069;DHT22;13887;57.196;-2.100;2022-09-09T08:04:25;15.61;90.89
22069;DHT22;13887;57.196;-2.100;2022-09-09T08:06:56;15.62;90.78
22069;DHT22;13887;57.196;-2.100;2022-09-09T08:09:26;15.62;90.72
22069;DHT22;13887;57.196;-2.100;2022-09-09T08:12:07;15.63;90.57
22069;DHT22;13887;57.196;-2.100;2022-09-09T08:14:35;15.65;90.50
22069;DHT22;13887;57.196;-2.100;2022-09-09T08:17:02;15.65;90.38
22069;DHT22;13887;57.196;-2.100;2022-09-09T08:19:31;15.63;90.23
22069;DHT22;13887;57.196;-2.100;2022-09-09T08:22:02;15.65;89.39
22069;DHT22;13887;57.196;-2.100;2022-09-09T08:24:31;15.63;89.36
22069;DHT22;13887;57.196;-2.100;2022-09-09T08:26:58;15.65;89.45
22069;DHT22;13887;57.196;-2.100;2022-09-09T08:29:26;15.67;89.38
22069;DHT22;13887;57.196;-2.100;2022-09-09T08:31:57;15.67;89.21
22069;DHT22;13887;57.196;-2.100;2022-09-09T08:34:26;15.65;89.09
22069;DHT22;13887;57.196;-2.100;2022-09-09T08:36:56;15.65;89.09
22069;DHT22;13887;57.196;-2.100;2022-09-09T08:39:29;15.66;88.93
22069;DHT22;13887;57.196;-2.100;2022-09-09T08:42:17;15.67;88.83
22069;DHT22;13887;57.196;-2.100;2022-09-09T08:55:48;15.66;88.29
22069;DHT22;13887;57.196;-2.100;2022-09-09T08:58:47;15.67;88.19
22069;DHT22;13887;57.196;-2.100;2022-09-09T09:10:02;15.68;88.28
22069;DHT22;13887;57.196;-2.100;2022-09-09T09:12:44;15.68;87.97
22069;DHT22;13887;57.196;-2.100;2022-09-09T09:15:19;15.69;88.12
22069;DHT22;13887;57.196;-2.100;2022-09-09T09:17:49;15.69;88.13
22069;DHT22;13887;57.196;-2.100;2022-09-09T09:20:27;15.69;88.07
22069;DHT22;13887;57.196;-2.100;2022-09-09T09:23:00;15.70;88.15
22069;DHT22;13887;57.196;-2.100;2022-09-09T09:25:35;15.72;88.22
22069;DHT22;13887;57.196;-2.100;2022-09-09T09:28:22;15.71;88.18
22069;DHT22;13887;57.196;-2.100;2022-09-09T09:31:06;15.70;88.09
22069;DHT22;13887;57.196;-2.100;2022-09-09T09:36:02;15.69;88.16
22069;DHT22;13887;57.196;-2.100;2022-09-09T09:38:30;15.69;88.28
22069;DHT22;13887;57.196;-2.100;2022-09-09T09:41:49;15.69;88.40
22069;DHT22;13887;57.196;-2.100;2022-09-09T09:44:33;15.68;88.41
22069;DHT22;13887;57.196;-2.100;2022-09-09T09:49:56;15.65;88.18
22069;DHT22;13887;57.196;-2.100;2022-09-09T09:52:29;15.63;88.01
22069;DHT22;13887;57.196;-2.100;2022-09-09T09:54:58;15.65;87.79
22069;DHT22;13887;57.196;-2.100;2022-09-09T09:57:33;15.62;87.81
22069;DHT22;13887;57.196;-2.100;2022-09-09T10:02:44;15.65;87.83
22069;DHT22;13887;57.196;-2.100;2022-09-09T10:05:20;15.66;87.68
22069;DHT22;13887;57.196;-2.100;2022-09-09T10:08:05;15.63;87.66
22069;DHT22;13887;57.196;-2.100;2022-09-09T10:19:04;15.63;87.54
22069;DHT22;13887;57.196;-2.100;2022-09-09T10:35:09;15.66;86.67
22069;DHT22;13887;57.196;-2.100;2022-09-09T10:46:31;15.63;85.99
22069;DHT22;13887;57.196;-2.100;2022-09-09T10:54:34;15.59;85.25
22069;DHT22;13887;57.196;-2.100;2022-09-09T10:57:11;15.61;85.13
22069;DHT22;13887;57.196;-2.100;2022-09-09T10:59:48;15.61;85.18
22069;DHT22;13887;57.196;-2.100;2022-09-09T11:02:26;15.61;84.93
22069;DHT22;13887;57.196;-2.100;2022-09-09T11:07:40;15.65;84.81
22069;DHT22;13887;57.196;-2.100;2022-09-09T11:18:43;15.66;84.94
22069;DHT22;13887;57.196;-2.100;2022-09-09T11:21:29;15.67;84.93
22069;DHT22;13887;57.196;-2.100;2022-09-09T11:24:02;15.66;84.84
22069;DHT22;13887;57.196;-2.100;2022-09-09T11:26:40;15.65;84.35
22069;DHT22;13887;57.196;-2.100;2022-09-09T11:34:53;15.67;83.94
22069;DHT22;13887;57.196;-2.100;2022-09-09T11:37:33;15.66;83.82
22069;DHT22;13887;57.196;-2.100;2022-09-09T11:42:42;15.69;83.61
22069;DHT22;13887;57.196;-2.100;2022-09-09T11:45:24;15.72;83.56
22069;DHT22;13887;57.196;-2.100;2022-09-09T11:48:00;15.71;83.19
22069;DHT22;13887;57.196;-2.100;2022-09-09T11:50:33;15.70;83.00
22069;DHT22;13887;57.196;-2.100;2022-09-09T11:53:18;15.70;82.41
22069;DHT22;13887;57.196;-2.100;2022-09-09T11:56:07;15.72;82.62
22069;DHT22;13887;57.196;-2.100;2022-09-09T11:58:40;15.74;82.32
22069;DHT22;13887;57.196;-2.100;2022-09-09T12:06:56;15.72;81.77
22069;DHT22;13887;57.196;-2.100;2022-09-09T12:12:27;15.72;81.75
22069;DHT22;13887;57.196;-2.100;2022-09-09T12:17:28;15.75;81.51
22069;DHT22;13887;57.196;-2.100;2022-09-09T12:20:17;15.77;81.55
22069;DHT22;13887;57.196;-2.100;2022-09-09T12:30:49;15.76;80.83
22069;DHT22;13887;57.196;-2.100;2022-09-09T12:33:20;15.76;80.93
22069;DHT22;13887;57.196;-2.100;2022-09-09T12:35:54;15.76;80.27
22069;DHT22;13887;57.196;-2.100;2022-09-09T12:38:43;15.77;80.78
22069;DHT22;13887;57.196;-2.100;2022-09-09T12:41:24;15.82;80.63
22069;DHT22;13887;57.196;-2.100;2022-09-09T12:44:02;15.85;80.53
22069;DHT22;13887;57.196;-2.100;2022-09-09T12:46:36;15.81;80.36
22069;DHT22;13887;57.196;-2.100;2022-09-09T12:49:04;15.77;79.23
22069;DHT22;13887;57.196;-2.100;2022-09-09T12:51:33;15.76;78.97
22069;DHT22;13887;57.196;-2.100;2022-09-09T12:54:00;15.78;78.89
22069;DHT22;13887;57.196;-2.100;2022-09-09T12:56:30;15.81;79.11
22069;DHT22;13887;57.196;-2.100;2022-09-09T12:58:58;15.81;79.38
22069;DHT22;13887;57.196;-2.100;2022-09-09T13:01:30;15.81;79.47
22069;DHT22;13887;57.196;-2.100;2022-09-09T13:03:58;15.78;79.11
22069;DHT22;13887;57.196;-2.100;2022-09-09T13:06:30;15.84;78.74
22069;DHT22;13887;57.196;-2.100;2022-09-09T13:09:00;15.86;79.17
22069;DHT22;13887;57.196;-2.100;2022-09-09T13:11:31;15.85;79.37
22069;DHT22;13887;57.196;-2.100;2022-09-09T13:14:02;15.86;79.52
22069;DHT22;13887;57.196;-2.100;2022-09-09T13:16:31;15.86;79.37
22069;DHT22;13887;57.196;-2.100;2022-09-09T13:19:14;15.84;79.68
22069;DHT22;13887;57.196;-2.100;2022-09-09T13:21:43;15.84;79.47
22069;DHT22;13887;57.196;-2.100;2022-09-09T13:26:58;15.83;79.52
22069;DHT22;13887;57.196;-2.100;2022-09-09T13:29:26;15.85;79.52
22069;DHT22;13887;57.196;-2.100;2022-09-09T13:31:53;15.82;79.40
22069;DHT22;13887;57.196;-2.100;2022-09-09T13:37:06;15.84;79.19
22069;DHT22;13887;57.196;-2.100;2022-09-09T13:39:40;15.84;79.38
22069;DHT22;13887;57.196;-2.100;2022-09-09T13:42:39;15.86;79.03
22069;DHT22;13887;57.196;-2.100;2022-09-09T13:45:20;15.88;78.18
22069;DHT22;13887;57.196;-2.100;2022-09-09T13:47:48;15.84;78.26
22069;DHT22;13887;57.196;-2.100;2022-09-09T13:50:25;15.83;78.47
22069;DHT22;13887;57.196;-2.100;2022-09-09T13:52:57;15.82;78.66
22069;DHT22;13887;57.196;-2.100;2022-09-09T13:55:28;15.83;78.72
22069;DHT22;13887;57.196;-2.100;2022-09-09T13:58:02;15.81;78.69
22069;DHT22;13887;57.196;-2.100;2022-09-09T14:00:33;15.82;78.76
22069;DHT22;13887;57.196;-2.100;2022-09-09T14:03:00;15.84;78.88
22069;DHT22;13887;57.196;-2.100;2022-09-09T14:05:32;15.83;78.72
22069;DHT22;13887;57.196;-2.100;2022-09-09T14:08:00;15.84;78.69
22069;DHT22;13887;57.196;-2.100;2022-09-09T14:10:27;15.82;78.94
22069;DHT22;13887;57.196;-2.100;2022-09-09T14:12:54;15.82;78.75
22069;DHT22;13887;57.196;-2.100;2022-09-09T14:15:21;15.80;78.20
22069;DHT22;13887;57.196;-2.100;2022-09-09T14:17:48;15.78;78.28
22069;DHT22;13887;57.196;-2.100;2022-09-09T14:20:15;15.81;78.28
22069;DHT22;13887;57.196;-2.100;2022-09-09T14:22:44;15.78;78.24
22069;DHT22;13887;57.196;-2.100;2022-09-09T14:25:11;15.76;77.55
22069;DHT22;13887;57.196;-2.100;2022-09-09T14:27:40;15.75;77.52
22069;DHT22;13887;57.196;-2.100;2022-09-09T14:30:08;15.76;77.63
22069;DHT22;13887;57.196;-2.100;2022-09-09T14:32:35;15.76;77.55
22069;DHT22;13887;57.196;-2.100;2022-09-09T14:35:02;15.75;77.46
22069;DHT22;13887;57.196;-2.100;2022-09-09T14:37:29;15.75;77.25
22069;DHT22;13887;57.196;-2.100;2022-09-09T14:39:57;15.77;77.51
22069;DHT22;13887;57.196;-2.100;2022-09-09T14:42:24;15.76;77.44
22069;DHT22;13887;57.196;-2.100;2022-09-09T14:44:52;15.77;77.32
22069;DHT22;13887;57.196;-2.100;2022-09-09T14:47:19;15.77;77.27
22069;DHT22;13887;57.196;-2.100;2022-09-09T14:49:46;15.77;77.45
22069;DHT22;13887;57.196;-2.100;2022-09-09T14:52:15;15.76;77.90
22069;DHT22;13887;57.196;-2.100;2022-09-09T14:54:42;15.76;78.11
22069;DHT22;13887;57.196;-2.100;2022-09-09T14:57:09;15.75;77.88
22069;DHT22;13887;57.196;-2.100;2022-09-09T14:59:36;15.76;78.08
22069;DHT22;13887;57.196;-2.100;2022-09-09T15:02:04;15.74;78.14
22069;DHT22;13887;57.196;-2.100;2022-09-09T15:04:31;15.74;78.40
22069;DHT22;13887;57.196;-2.100;2022-09-09T15:06:58;15.75;78.39
22069;DHT22;13887;57.196;-2.100;2022-09-09T15:09:25;15.73;78.50
22069;DHT22;13887;57.196;-2.100;2022-09-09T15:11:52;15.73;78.63
22069;DHT22;13887;57.196;-2.100;2022-09-09T15:14:19;15.74;78.75
22069;DHT22;13887;57.196;-2.100;2022-09-09T15:16:51;15.74;78.76
22069;DHT22;13887;57.196;-2.100;2022-09-09T15:19:17;15.74;78.96
22069;DHT22;13887;57.196;-2.100;2022-09-09T15:21:44;15.72;78.87
22069;DHT22;13887;57.196;-2.100;2022-09-09T15:24:11;15.73;78.85
22069;DHT22;13887;57.196;-2.100;2022-09-09T15:26:40;15.72;79.08
22069;DHT22;13887;57.196;-2.100;2022-09-09T15:29:07;15.71;78.85
22069;DHT22;13887;57.196;-2.100;2022-09-09T15:31:35;15.73;79.09
22069;DHT22;13887;57.196;-2.100;2022-09-09T15:34:05;15.72;79.11
22069;DHT22;13887;57.196;-2.100;2022-09-09T15:36:37;15.72;79.17
22069;DHT22;13887;57.196;-2.100;2022-09-09T15:39:09;15.72;79.10
22069;DHT22;13887;57.196;-2.100;2022-09-09T15:41:39;15.71;79.20
22069;DHT22;13887;57.196;-2.100;2022-09-09T15:44:07;15.71;79.06
22069;DHT22;13887;57.196;-2.100;2022-09-09T15:46:45;15.70;79.30
22069;DHT22;13887;57.196;-2.100;2022-09-09T15:49:23;15.71;79.34
22069;DHT22;13887;57.196;-2.100;2022-09-09T15:51:59;15.72;79.46
22069;DHT22;13887;57.196;-2.100;2022-09-09T15:54:32;15.72;79.79
22069;DHT22;13887;57.196;-2.100;2022-09-09T15:57:01;15.72;79.84
22069;DHT22;13887;57.196;-2.100;2022-09-09T15:59:29;15.71;79.86
22069;DHT22;13887;57.196;-2.100;2022-09-09T16:01:58;15.71;79.85
22069;DHT22;13887;57.196;-2.100;2022-09-09T16:04:27;15.71;79.85
22069;DHT22;13887;57.196;-2.100;2022-09-09T16:07:01;15.70;79.75
22069;DHT22;13887;57.196;-2.100;2022-09-09T16:09:29;15.67;79.74
22069;DHT22;13887;57.196;-2.100;2022-09-09T16:11:57;15.68;79.68
22069;DHT22;13887;57.196;-2.100;2022-09-09T16:14:25;15.67;79.67
22069;DHT22;13887;57.196;-2.100;2022-09-09T16:16:52;15.68;79.72
22069;DHT22;13887;57.196;-2.100;2022-09-09T16:19:20;15.70;79.69
22069;DHT22;13887;57.196;-2.100;2022-09-09T16:21:48;15.69;79.70
22069;DHT22;13887;57.196;-2.100;2022-09-09T16:24:17;15.69;79.67
22069;DHT22;13887;57.196;-2.100;2022-09-09T16:26:47;15.72;79.43
22069;DHT22;13887;57.196;-2.100;2022-09-09T16:29:15;15.71;79.59
22069;DHT22;13887;57.196;-2.100;2022-09-09T16:31:44;15.70;79.61
22069;DHT22;13887;57.196;-2.100;2022-09-09T16:34:13;15.67;79.77
22069;DHT22;13887;57.196;-2.100;2022-09-09T16:36:42;15.70;79.82
22069;DHT22;13887;57.196;-2.100;2022-09-09T16:39:17;15.71;80.11
22069;DHT22;13887;57.196;-2.100;2022-09-09T16:41:45;15.72;80.15
22069;DHT22;13887;57.196;-2.100;2022-09-09T16:44:15;15.70;80.24
22069;DHT22;13887;57.196;-2.100;2022-09-09T16:46:44;15.68;80.17
22069;DHT22;13887;57.196;-2.100;2022-09-09T16:49:13;15.69;80.04
22069;DHT22;13887;57.196;-2.100;2022-09-09T16:51:49;15.68;80.14
22069;DHT22;13887;57.196;-2.100;2022-09-09T16:54:20;15.68;79.90
22069;DHT22;13887;57.196;-2.100;2022-09-09T16:56:48;15.68;79.76
22069;DHT22;13887;57.196;-2.100;2022-09-09T16:59:20;15.65;79.87
22069;DHT22;13887;57.196;-2.100;2022-09-09T17:01:49;15.61;79.44
22069;DHT22;13887;57.196;-2.100;2022-09-09T17:04:18;15.60;79.32
22069;DHT22;13887;57.196;-2.100;2022-09-09T17:06:48;15.61;79.24
22069;DHT22;13887;57.196;-2.100;2022-09-09T17:09:17;15.63;79.34
22069;DHT22;13887;57.196;-2.100;2022-09-09T17:11:44;15.62;79.21
22069;DHT22;13887;57.196;-2.100;2022-09-09T17:14:15;15.58;79.29
22069;DHT22;13887;57.196;-2.100;2022-09-09T17:16:43;15.58;79.30
22069;DHT22;13887;57.196;-2.100;2022-09-09T17:19:11;15.55;79.57
22069;DHT22;13887;57.196;-2.100;2022-09-09T17:21:38;15.55;79.62
22069;DHT22;13887;57.196;-2.100;2022-09-09T17:24:26;15.53;79.58
22069;DHT22;13887;57.196;-2.100;2022-09-09T17:26:56;15.52;79.60
22069;DHT22;13887;57.196;-2.100;2022-09-09T17:29:24;15.49;79.52
22069;DHT22;13887;57.196;-2.100;2022-09-09T17:31:52;15.51;79.63
22069;DHT22;13887;57.196;-2.100;2022-09-09T17:34:18;15.47;79.62
22069;DHT22;13887;57.196;-2.100;2022-09-09T17:36:45;15.47;79.66
22069;DHT22;13887;57.196;-2.100;2022-09-09T17:39:12;15.48;79.62
22069;DHT22;13887;57.196;-2.100;2022-09-09T17:41:39;15.48;79.62
22069;DHT22;13887;57.196;-2.100;2022-09-09T17:44:07;15.48;79.69
22069;DHT22;13887;57.196;-2.100;2022-09-09T17:46:41;15.46;79.51
22069;DHT22;13887;57.196;-2.100;2022-09-09T17:49:11;15.44;79.68
22069;DHT22;13887;57.196;-2.100;2022-09-09T17:51:41;15.42;79.66
22069;DHT22;13887;57.196;-2.100;2022-09-09T17:54:11;15.45;79.59
22069;DHT22;13887;57.196;-2.100;2022-09-09T17:56:40;15.47;79.60
22069;DHT22;13887;57.196;-2.100;2022-09-09T17:59:08;15.46;79.79
22069;DHT22;13887;57.196;-2.100;2022-09-09T18:01:38;15.45;79.86
22069;DHT22;13887;57.196;-2.100;2022-09-09T18:04:07;15.44;80.09